sensor_id;sensor_type;location;lat;lon;timestamp;temperature;humidity
54192;DHT22;40101;53.002;6.488;2023-12-22T00:01:12;5.60;99.90
54192;DHT22;40101;53.002;6.488;2023-12-22T00:03:41;5.10;99.90
54192;DHT22;40101;53.002;6.488;2023-12-22T00:06:07;5.10;99.90
54192;DHT22;40101;53.002;6.488;2023-12-22T00:08:33;5.20;99.90
54192;DHT22;40101;53.002;6.488;2023-12-22T00:10:58;5.30;99.90
54192;DHT22;40101;53.002;6.488;2023-12-22T00:13:25;5.90;99.90
54192;DHT22;40101;53.002;6.488;2023-12-22T00:15:50;5.30;99.90
54192;DHT22;40101;53.002;6.488;2023-12-22T00:18:16;5.30;99.90
54192;DHT22;40101;53.002;6.488;2023-12-22T00:20:42;5.30;99.90
54192;DHT22;40101;53.002;6.488;2023-12-22T00:23:07;5.30;99.90
54192;DHT22;40101;53.002;6.488;2023-12-22T00:25:33;5.60;99.90
54192;DHT22;40101;53.002;6.488;2023-12-22T00:27:59;5.30;99.90
54192;DHT22;40101;53.002;6.488;2023-12-22T00:30:24;5.30;99.90
54192;DHT22;40101;53.002;6.488;2023-12-22T00:32:50;5.20;99.90
54192;DHT22;40101;53.002;6.488;2023-12-22T00:35:16;5.80;99.90
54192;DHT22;40101;53.002;6.488;2023-12-22T00:37:41;5.50;99.90
54192;DHT22;40101;53.002;6.488;2023-12-22T00:40:07;5.20;99.90
54192;DHT22;40101;53.002;6.488;2023-12-22T00:42:35;5.40;99.90
54192;DHT22;40101;53.002;6.488;2023-12-22T00:45:00;5.50;99.90
54192;DHT22;40101;53.002;6.488;2023-12-22T00:47:26;5.50;99.90
54192;DHT22;40101;53.002;6.488;2023-12-22T00:49:52;5.60;99.90
54192;DHT22;40101;53.002;6.488;2023-12-22T00:52:17;5.60;99.90
54192;DHT22;40101;53.002;6.488;2023-12-22T00:54:43;5.50;99.90
54192;DHT22;40101;53.002;6.488;2023-12-22T00:57:09;5.40;99.90
54192;DHT22;40101;53.002;6.488;2023-12-22T00:59:34;5.40;99.90
54192;DHT22;40101;53.002;6.488;2023-12-22T01:02:00;5.40;99.90
54192;DHT22;40101;53.002;6.488;2023-12-22T01:04:26;5.30;99.90
54192;DHT22;40101;53.002;6.488;2023-12-22T01:06:51;5.90;99.90
54192;DHT22;40101;53.002;6.488;2023-12-22T01:09:18;5.40;99.90
54192;DHT22;40101;53.002;6.488;2023-12-22T01:11:45;5.40;99.90
54192;DHT22;40101;53.002;6.488;2023-12-22T01:14:11;5.50;99.90
54192;DHT22;40101;53.002;6.488;2023-12-22T01:16:39;5.50;99.90
54192;DHT22;40101;53.002;6.488;2023-12-22T01:19:04;5.50;99.90
54192;DHT22;40101;53.002;6.488;2023-12-22T01:21:30;5.50;99.90
54192;DHT22;40101;53.002;6.488;2023-12-22T01:23:56;5.50;99.90
54192;DHT22;40101;53.002;6.488;2023-12-22T01:26:24;5.50;99.90
54192;DHT22;40101;53.002;6.488;2023-12-22T01:28:49;6.10;99.90
54192;DHT22;40101;53.002;6.488;2023-12-22T01:31:15;5.50;99.90
54192;DHT22;40101;53.002;6.488;2023-12-22T01:33:41;5.50;99.90
54192;DHT22;40101;53.002;6.488;2023-12-22T01:36:06;5.80;99.90
54192;DHT22;40101;53.002;6.488;2023-12-22T01:38:32;5.30;99.90
54192;DHT22;40101;53.002;6.488;2023-12-22T01:40:58;5.20;99.90
54192;DHT22;40101;53.002;6.488;2023-12-22T01:43:23;5.20;99.90
54192;DHT22;40101;53.002;6.488;2023-12-22T01:45:55;5.20;99.90
54192;DHT22;40101;53.002;6.488;2023-12-22T01:48:21;5.20;99.90
54192;DHT22;40101;53.002;6.488;2023-12-22T01:50:49;5.30;99.90
54192;DHT22;40101;53.002;6.488;2023-12-22T01:53:16;5.40;99.90
54192;DHT22;40101;53.002;6.488;2023-12-22T01:55:42;5.40;99.90
54192;DHT22;40101;53.002;6.488;2023-12-22T01:58:08;5.40;99.90
54192;DHT22;40101;53.002;6.488;2023-12-22T02:00:35;5.30;99.90
54192;DHT22;40101;53.002;6.488;2023-12-22T02:03:01;5.90;99.90
54192;DHT22;40101;53.002;6.488;2023-12-22T02:05:27;5.30;99.90
54192;DHT22;40101;53.002;6.488;2023-12-22T02:07:55;5.60;99.90
54192;DHT22;40101;53.002;6.488;2023-12-22T02:10:20;5.90;99.90
54192;DHT22;40101;53.002;6.488;2023-12-22T02:12:46;5.30;99.90
54192;DHT22;40101;53.002;6.488;2023-12-22T02:15:12;5.30;99.90
54192;DHT22;40101;53.002;6.488;2023-12-22T02:20:04;5.40;99.90
54192;DHT22;40101;53.002;6.488;2023-12-22T02:22:31;5.50;99.90
54192;DHT22;40101;53.002;6.488;2023-12-22T02:24:57;5.60;99.90
54192;DHT22;40101;53.002;6.488;2023-12-22T02:27:35;6.20;99.90
54192;DHT22;40101;53.002;6.488;2023-12-22T02:30:14;5.70;99.90
54192;DHT22;40101;53.002;6.488;2023-12-22T02:32:46;6.20;99.90
54192;DHT22;40101;53.002;6.488;2023-12-22T02:35:25;5.70;99.90
54192;DHT22;40101;53.002;6.488;2023-12-22T02:37:51;5.60;99.90
54192;DHT22;40101;53.002;6.488;2023-12-22T02:40:18;5.50;99.90
54192;DHT22;40101;53.002;6.488;2023-12-22T02:42:45;5.50;99.90
54192;DHT22;40101;53.002;6.488;2023-12-22T02:45:16;5.90;99.90
54192;DHT22;40101;53.002;6.488;2023-12-22T02:47:42;5.90;99.90
54192;DHT22;40101;53.002;6.488;2023-12-22T02:50:08;5.30;99.90
54192;DHT22;40101;53.002;6.488;2023-12-22T02:52:34;5.20;99.90
54192;DHT22;40101;53.002;6.488;2023-12-22T02:55:01;5.20;99.90
54192;DHT22;40101;53.002;6.488;2023-12-22T02:57:27;5.20;99.90
54192;DHT22;40101;53.002;6.488;2023-12-22T02:59:52;5.30;99.90
54192;DHT22;40101;53.002;6.488;2023-12-22T03:02:18;5.50;99.90
54192;DHT22;40101;53.002;6.488;2023-12-22T03:04:44;5.40;99.90
54192;DHT22;40101;53.002;6.488;2023-12-22T03:07:12;5.50;99.90
54192;DHT22;40101;53.002;6.488;2023-12-22T03:09:37;5.50;99.90
54192;DHT22;40101;53.002;6.488;2023-12-22T03:12:03;5.50;99.90
54192;DHT22;40101;53.002;6.488;2023-12-22T03:14:32;5.50;99.90
54192;DHT22;40101;53.002;6.488;2023-12-22T03:17:03;5.40;99.90
54192;DHT22;40101;53.002;6.488;2023-12-22T03:19:29;5.40;99.90
54192;DHT22;40101;53.002;6.488;2023-12-22T03:21:55;5.40;99.90
54192;DHT22;40101;53.002;6.488;2023-12-22T03:24:22;5.40;99.90
54192;DHT22;40101;53.002;6.488;2023-12-22T03:26:51;5.50;99.90
54192;DHT22;40101;53.002;6.488;2023-12-22T03:29:17;5.50;99.90
54192;DHT22;40101;53.002;6.488;2023-12-22T03:31:44;5.60;99.90
54192;DHT22;40101;53.002;6.488;2023-12-22T03:34:10;5.50;99.90
54192;DHT22;40101;53.002;6.488;2023-12-22T03:36:35;5.50;99.90
54192;DHT22;40101;53.002;6.488;2023-12-22T03:39:01;5.50;99.90
54192;DHT22;40101;53.002;6.488;2023-12-22T03:41:28;5.60;99.90
54192;DHT22;40101;53.002;6.488;2023-12-22T03:43:58;5.60;99.90
54192;DHT22;40101;53.002;6.488;2023-12-22T03:46:24;5.60;99.90
54192;DHT22;40101;53.002;6.488;2023-12-22T03:48:50;5.70;99.90
54192;DHT22;40101;53.002;6.488;2023-12-22T03:51:16;5.60;99.90
54192;DHT22;40101;53.002;6.488;2023-12-22T03:53:42;5.60;99.90
54192;DHT22;40101;53.002;6.488;2023-12-22T03:56:08;5.60;99.90
54192;DHT22;40101;53.002;6.488;2023-12-22T03:58:37;5.60;99.90
54192;DHT22;40101;53.002;6.488;2023-12-22T04:01:03;5.60;99.90
54192;DHT22;40101;53.002;6.488;2023-12-22T04:03:29;5.90;99.90
54192;DHT22;40101;53.002;6.488;2023-12-22T04:05:55;5.70;99.90
54192;DHT22;40101;53.002;6.488;2023-12-22T04:08:21;6.10;99.90
54192;DHT22;40101;53.002;6.488;2023-12-22T04:10:47;5.70;99.90
54192;DHT22;40101;53.002;6.488;2023-12-22T04:13:13;5.70;99.90
54192;DHT22;40101;53.002;6.488;2023-12-22T04:15:39;5.70;99.90
54192;DHT22;40101;53.002;6.488;2023-12-22T04:18:05;5.80;99.90
54192;DHT22;40101;53.002;6.488;2023-12-22T04:20:30;6.00;99.90
54192;DHT22;40101;53.002;6.488;2023-12-22T04:22:57;5.90;99.90
54192;DHT22;40101;53.002;6.488;2023-12-22T04:25:22;5.90;99.90
54192;DHT22;40101;53.002;6.488;2023-12-22T04:27:50;6.00;99.90
54192;DHT22;40101;53.002;6.488;2023-12-22T04:30:15;5.90;99.90
54192;DHT22;40101;53.002;6.488;2023-12-22T04:32:41;6.60;99.90
54192;DHT22;40101;53.002;6.488;2023-12-22T04:35:07;6.00;99.90
54192;DHT22;40101;53.002;6.488;2023-12-22T04:37:33;6.00;99.90
54192;DHT22;40101;53.002;6.488;2023-12-22T04:39:59;6.00;99.90
54192;DHT22;40101;53.002;6.488;2023-12-22T04:42:25;6.00;99.90
54192;DHT22;40101;53.002;6.488;2023-12-22T04:44:54;5.70;99.90
54192;DHT22;40101;53.002;6.488;2023-12-22T04:47:20;6.10;99.90
54192;DHT22;40101;53.002;6.488;2023-12-22T04:49:46;6.10;99.90
54192;DHT22;40101;53.002;6.488;2023-12-22T04:52:12;6.10;99.90
54192;DHT22;40101;53.002;6.488;2023-12-22T04:54:38;6.10;99.90
54192;DHT22;40101;53.002;6.488;2023-12-22T04:57:04;6.10;99.90
54192;DHT22;40101;53.002;6.488;2023-12-22T04:59:30;6.10;99.90
54192;DHT22;40101;53.002;6.488;2023-12-22T05:01:56;6.20;99.90
54192;DHT22;40101;53.002;6.488;2023-12-22T05:04:21;6.20;99.90
54192;DHT22;40101;53.002;6.488;2023-12-22T05:06:50;6.20;99.90
54192;DHT22;40101;53.002;6.488;2023-12-22T05:09:16;6.20;99.90
54192;DHT22;40101;53.002;6.488;2023-12-22T05:11:41;6.20;99.90
54192;DHT22;40101;53.002;6.488;2023-12-22T05:14:07;6.20;99.90
54192;DHT22;40101;53.002;6.488;2023-12-22T05:16:33;6.20;99.90
54192;DHT22;40101;53.002;6.488;2023-12-22T05:18:59;6.30;99.90
54192;DHT22;40101;53.002;6.488;2023-12-22T05:21:25;6.10;99.90
54192;DHT22;40101;53.002;6.488;2023-12-22T05:23:51;6.60;99.90
54192;DHT22;40101;53.002;6.488;2023-12-22T05:26:18;6.10;99.90
54192;DHT22;40101;53.002;6.488;2023-12-22T05:28:43;6.10;99.90
54192;DHT22;40101;53.002;6.488;2023-12-22T05:31:09;6.20;99.90
54192;DHT22;40101;53.002;6.488;2023-12-22T05:33:35;6.60;99.90
54192;DHT22;40101;53.002;6.488;2023-12-22T05:36:00;6.00;99.90
54192;DHT22;40101;53.002;6.488;2023-12-22T05:38:26;6.10;99.90
54192;DHT22;40101;53.002;6.488;2023-12-22T05:40:52;5.90;99.90
54192;DHT22;40101;53.002;6.488;2023-12-22T05:43:17;6.10;99.90
54192;DHT22;40101;53.002;6.488;2023-12-22T05:45:43;6.10;99.90
54192;DHT22;40101;53.002;6.488;2023-12-22T05:48:09;6.20;99.90
54192;DHT22;40101;53.002;6.488;2023-12-22T05:50:34;6.60;99.90
54192;DHT22;40101;53.002;6.488;2023-12-22T05:53:00;6.20;99.90
54192;DHT22;40101;53.002;6.488;2023-12-22T05:55:26;6.20;99.90
54192;DHT22;40101;53.002;6.488;2023-12-22T05:57:52;6.10;99.90
54192;DHT22;40101;53.002;6.488;2023-12-22T06:00:19;6.50;99.90
54192;DHT22;40101;53.002;6.488;2023-12-22T06:02:45;6.20;99.90
54192;DHT22;40101;53.002;6.488;2023-12-22T06:05:10;6.20;99.90
54192;DHT22;40101;53.002;6.488;2023-12-22T06:07:36;6.70;99.90
54192;DHT22;40101;53.002;6.488;2023-12-22T06:10:02;6.20;99.90
54192;DHT22;40101;53.002;6.488;2023-12-22T06:12:27;6.30;99.90
54192;DHT22;40101;53.002;6.488;2023-12-22T06:14:53;6.30;99.90
54192;DHT22;40101;53.002;6.488;2023-12-22T06:17:18;6.30;99.90
54192;DHT22;40101;53.002;6.488;2023-12-22T06:19:44;6.30;99.90
54192;DHT22;40101;53.002;6.488;2023-12-22T06:22:10;6.10;99.90
54192;DHT22;40101;53.002;6.488;2023-12-22T06:24:35;6.30;99.90
54192;DHT22;40101;53.002;6.488;2023-12-22T06:27:01;6.20;99.90
54192;DHT22;40101;53.002;6.488;2023-12-22T06:29:27;6.30;99.90
54192;DHT22;40101;53.002;6.488;2023-12-22T06:31:53;6.20;99.90
54192;DHT22;40101;53.002;6.488;2023-12-22T06:34:18;6.20;99.90
54192;DHT22;40101;53.002;6.488;2023-12-22T06:36:44;6.20;99.90
54192;DHT22;40101;53.002;6.488;2023-12-22T06:39:10;6.50;99.90
54192;DHT22;40101;53.002;6.488;2023-12-22T06:41:36;6.30;99.90
54192;DHT22;40101;53.002;6.488;2023-12-22T06:44:01;6.60;99.90
54192;DHT22;40101;53.002;6.488;2023-12-22T06:46:28;6.30;99.90
54192;DHT22;40101;53.002;6.488;2023-12-22T06:48:57;6.30;99.90
54192;DHT22;40101;53.002;6.488;2023-12-22T06:51:28;6.30;99.90
54192;DHT22;40101;53.002;6.488;2023-12-22T06:53:56;6.20;99.90
54192;DHT22;40101;53.002;6.488;2023-12-22T06:56:24;6.30;99.90
54192;DHT22;40101;53.002;6.488;2023-12-22T06:58:51;6.30;99.90
54192;DHT22;40101;53.002;6.488;2023-12-22T07:01:28;6.20;99.90
54192;DHT22;40101;53.002;6.488;2023-12-22T07:03:53;6.30;99.90
54192;DHT22;40101;53.002;6.488;2023-12-22T07:06:20;6.20;99.90
54192;DHT22;40101;53.002;6.488;2023-12-22T07:11:37;6.20;99.90
54192;DHT22;40101;53.002;6.488;2023-12-22T07:14:03;6.20;99.90
54192;DHT22;40101;53.002;6.488;2023-12-22T07:16:28;6.20;99.90
54192;DHT22;40101;53.002;6.488;2023-12-22T07:18:54;6.20;99.90
54192;DHT22;40101;53.002;6.488;2023-12-22T07:21:20;6.20;99.90
54192;DHT22;40101;53.002;6.488;2023-12-22T07:23:46;6.20;99.90
54192;DHT22;40101;53.002;6.488;2023-12-22T07:26:11;6.70;99.90
54192;DHT22;40101;53.002;6.488;2023-12-22T07:28:37;6.30;99.90
54192;DHT22;40101;53.002;6.488;2023-12-22T07:31:03;6.30;99.90
54192;DHT22;40101;53.002;6.488;2023-12-22T07:33:29;6.30;99.90
54192;DHT22;40101;53.002;6.488;2023-12-22T07:35:54;6.30;99.90
54192;DHT22;40101;53.002;6.488;2023-12-22T07:38:20;6.30;99.90
54192;DHT22;40101;53.002;6.488;2023-12-22T07:40:46;6.30;99.90
54192;DHT22;40101;53.002;6.488;2023-12-22T07:43:12;6.30;99.90
54192;DHT22;40101;53.002;6.488;2023-12-22T07:45:38;6.30;99.90
54192;DHT22;40101;53.002;6.488;2023-12-22T07:48:04;6.30;99.90
54192;DHT22;40101;53.002;6.488;2023-12-22T07:50:30;6.30;99.90
54192;DHT22;40101;53.002;6.488;2023-12-22T07:52:55;6.20;99.90
54192;DHT22;40101;53.002;6.488;2023-12-22T07:55:21;6.80;99.90
54192;DHT22;40101;53.002;6.488;2023-12-22T07:57:47;6.30;99.90
54192;DHT22;40101;53.002;6.488;2023-12-22T08:00:13;6.30;99.90
54192;DHT22;40101;53.002;6.488;2023-12-22T08:02:38;6.30;99.90
54192;DHT22;40101;53.002;6.488;2023-12-22T08:05:04;6.20;99.90
54192;DHT22;40101;53.002;6.488;2023-12-22T08:07:30;6.20;99.90
54192;DHT22;40101;53.002;6.488;2023-12-22T08:09:56;6.20;99.90
54192;DHT22;40101;53.002;6.488;2023-12-22T08:12:22;6.20;99.90
54192;DHT22;40101;53.002;6.488;2023-12-22T08:14:48;6.20;99.90
54192;DHT22;40101;53.002;6.488;2023-12-22T08:17:14;6.20;99.90
54192;DHT22;40101;53.002;6.488;2023-12-22T08:19:39;6.30;99.90
54192;DHT22;40101;53.002;6.488;2023-12-22T08:22:09;6.30;99.90
54192;DHT22;40101;53.002;6.488;2023-12-22T08:24:36;6.30;99.90
54192;DHT22;40101;53.002;6.488;2023-12-22T08:27:01;6.40;99.90
54192;DHT22;40101;53.002;6.488;2023-12-22T08:29:27;6.60;99.90
54192;DHT22;40101;53.002;6.488;2023-12-22T08:31:53;6.50;99.90
54192;DHT22;40101;53.002;6.488;2023-12-22T08:34:19;6.70;99.90
54192;DHT22;40101;53.002;6.488;2023-12-22T08:36:44;6.50;99.90
54192;DHT22;40101;53.002;6.488;2023-12-22T08:39:10;6.50;99.90
54192;DHT22;40101;53.002;6.488;2023-12-22T08:41:36;6.50;99.90
54192;DHT22;40101;53.002;6.488;2023-12-22T08:44:05;6.50;99.90
54192;DHT22;40101;53.002;6.488;2023-12-22T08:46:31;6.50;99.90
54192;DHT22;40101;53.002;6.488;2023-12-22T08:48:57;6.40;99.90
54192;DHT22;40101;53.002;6.488;2023-12-22T08:51:23;6.30;99.90
54192;DHT22;40101;53.002;6.488;2023-12-22T08:53:48;6.30;99.90
54192;DHT22;40101;53.002;6.488;2023-12-22T08:56:15;6.20;99.90
54192;DHT22;40101;53.002;6.488;2023-12-22T08:58:42;6.20;99.90
54192;DHT22;40101;53.002;6.488;2023-12-22T09:01:14;6.30;99.90
54192;DHT22;40101;53.002;6.488;2023-12-22T09:03:40;6.30;99.90
54192;DHT22;40101;53.002;6.488;2023-12-22T09:06:10;6.40;99.90
54192;DHT22;40101;53.002;6.488;2023-12-22T09:08:36;6.60;99.90
54192;DHT22;40101;53.002;6.488;2023-12-22T09:11:02;7.00;99.90
54192;DHT22;40101;53.002;6.488;2023-12-22T09:13:28;7.70;99.90
54192;DHT22;40101;53.002;6.488;2023-12-22T09:15:53;7.80;99.90
54192;DHT22;40101;53.002;6.488;2023-12-22T09:18:19;7.80;99.90
54192;DHT22;40101;53.002;6.488;2023-12-22T09:20:44;7.60;99.90
54192;DHT22;40101;53.002;6.488;2023-12-22T09:23:10;7.40;99.90
54192;DHT22;40101;53.002;6.488;2023-12-22T09:25:36;7.30;99.90
54192;DHT22;40101;53.002;6.488;2023-12-22T09:28:02;7.30;99.90
54192;DHT22;40101;53.002;6.488;2023-12-22T09:30:28;7.10;99.90
54192;DHT22;40101;53.002;6.488;2023-12-22T09:32:53;7.10;99.90
54192;DHT22;40101;53.002;6.488;2023-12-22T09:35:19;7.00;99.90
54192;DHT22;40101;53.002;6.488;2023-12-22T09:37:45;7.50;99.90
54192;DHT22;40101;53.002;6.488;2023-12-22T09:40:11;7.00;99.90
54192;DHT22;40101;53.002;6.488;2023-12-22T09:42:40;7.00;99.90
54192;DHT22;40101;53.002;6.488;2023-12-22T09:45:08;7.00;99.90
54192;DHT22;40101;53.002;6.488;2023-12-22T09:47:36;6.90;99.90
54192;DHT22;40101;53.002;6.488;2023-12-22T09:50:02;7.00;99.90
54192;DHT22;40101;53.002;6.488;2023-12-22T09:52:29;6.80;99.90
54192;DHT22;40101;53.002;6.488;2023-12-22T09:54:57;6.80;99.90
54192;DHT22;40101;53.002;6.488;2023-12-22T09:57:24;7.20;99.90
54192;DHT22;40101;53.002;6.488;2023-12-22T09:59:51;6.90;99.90
54192;DHT22;40101;53.002;6.488;2023-12-22T10:02:18;6.70;99.90
54192;DHT22;40101;53.002;6.488;2023-12-22T10:04:43;6.80;99.90
54192;DHT22;40101;53.002;6.488;2023-12-22T10:07:11;6.70;99.90
54192;DHT22;40101;53.002;6.488;2023-12-22T10:09:41;6.70;99.90
54192;DHT22;40101;53.002;6.488;2023-12-22T10:12:09;6.70;99.90
54192;DHT22;40101;53.002;6.488;2023-12-22T10:14:37;6.70;99.90
54192;DHT22;40101;53.002;6.488;2023-12-22T10:17:04;6.70;99.90
54192;DHT22;40101;53.002;6.488;2023-12-22T10:19:30;6.70;99.90
54192;DHT22;40101;53.002;6.488;2023-12-22T10:21:56;6.70;99.90
54192;DHT22;40101;53.002;6.488;2023-12-22T10:24:44;6.80;99.90
54192;DHT22;40101;53.002;6.488;2023-12-22T10:27:13;6.80;99.90
54192;DHT22;40101;53.002;6.488;2023-12-22T10:29:42;6.90;99.90
54192;DHT22;40101;53.002;6.488;2023-12-22T10:32:08;6.90;99.90
54192;DHT22;40101;53.002;6.488;2023-12-22T10:34:34;6.90;99.90
54192;DHT22;40101;53.002;6.488;2023-12-22T10:37:00;6.90;99.90
54192;DHT22;40101;53.002;6.488;2023-12-22T10:39:32;6.90;99.90
54192;DHT22;40101;53.002;6.488;2023-12-22T10:41:59;7.00;99.90
54192;DHT22;40101;53.002;6.488;2023-12-22T10:44:28;7.00;99.90
54192;DHT22;40101;53.002;6.488;2023-12-22T10:46:55;7.00;99.90
54192;DHT22;40101;53.002;6.488;2023-12-22T10:49:24;7.00;99.90
54192;DHT22;40101;53.002;6.488;2023-12-22T10:51:51;7.00;99.90
54192;DHT22;40101;53.002;6.488;2023-12-22T10:54:19;7.00;99.90
54192;DHT22;40101;53.002;6.488;2023-12-22T10:56:45;7.00;99.90
54192;DHT22;40101;53.002;6.488;2023-12-22T10:59:11;7.30;99.90
54192;DHT22;40101;53.002;6.488;2023-12-22T11:01:37;7.10;99.90
54192;DHT22;40101;53.002;6.488;2023-12-22T11:04:08;7.10;99.90
54192;DHT22;40101;53.002;6.488;2023-12-22T11:06:36;7.10;99.90
54192;DHT22;40101;53.002;6.488;2023-12-22T11:09:07;7.20;99.90
54192;DHT22;40101;53.002;6.488;2023-12-22T11:11:36;7.30;99.90
54192;DHT22;40101;53.002;6.488;2023-12-22T11:14:02;7.20;99.90
54192;DHT22;40101;53.002;6.488;2023-12-22T11:16:29;7.20;99.90
54192;DHT22;40101;53.002;6.488;2023-12-22T11:18:55;7.20;99.90
54192;DHT22;40101;53.002;6.488;2023-12-22T11:21:22;7.30;99.90
54192;DHT22;40101;53.002;6.488;2023-12-22T11:23:49;7.30;99.90
54192;DHT22;40101;53.002;6.488;2023-12-22T11:26:17;7.30;99.90
54192;DHT22;40101;53.002;6.488;2023-12-22T11:28:45;7.30;99.90
54192;DHT22;40101;53.002;6.488;2023-12-22T11:31:12;7.40;99.90
54192;DHT22;40101;53.002;6.488;2023-12-22T11:33:42;7.40;99.90
54192;DHT22;40101;53.002;6.488;2023-12-22T11:36:08;7.40;99.90
54192;DHT22;40101;53.002;6.488;2023-12-22T11:38:35;7.50;99.90
54192;DHT22;40101;53.002;6.488;2023-12-22T11:41:01;7.50;99.90
54192;DHT22;40101;53.002;6.488;2023-12-22T11:43:28;7.50;99.90
54192;DHT22;40101;53.002;6.488;2023-12-22T11:45:55;7.80;99.90
54192;DHT22;40101;53.002;6.488;2023-12-22T11:48:22;7.90;99.90
54192;DHT22;40101;53.002;6.488;2023-12-22T11:50:48;7.50;99.90
54192;DHT22;40101;53.002;6.488;2023-12-22T11:53:24;7.60;99.90
54192;DHT22;40101;53.002;6.488;2023-12-22T11:56:06;7.90;99.90
54192;DHT22;40101;53.002;6.488;2023-12-22T11:58:46;7.60;99.90
54192;DHT22;40101;53.002;6.488;2023-12-22T12:01:18;7.50;99.90
54192;DHT22;40101;53.002;6.488;2023-12-22T12:03:56;7.50;99.90
54192;DHT22;40101;53.002;6.488;2023-12-22T12:08:51;7.80;99.90
54192;DHT22;40101;53.002;6.488;2023-12-22T12:11:17;7.50;99.90
54192;DHT22;40101;53.002;6.488;2023-12-22T12:13:47;7.50;99.90
54192;DHT22;40101;53.002;6.488;2023-12-22T12:16:20;7.50;99.90
54192;DHT22;40101;53.002;6.488;2023-12-22T12:18:50;7.50;99.90
54192;DHT22;40101;53.002;6.488;2023-12-22T12:21:16;7.50;99.90
54192;DHT22;40101;53.002;6.488;2023-12-22T12:23:42;7.80;99.90
54192;DHT22;40101;53.002;6.488;2023-12-22T12:26:08;7.70;99.90
54192;DHT22;40101;53.002;6.488;2023-12-22T12:28:35;7.60;99.90
54192;DHT22;40101;53.002;6.488;2023-12-22T12:31:06;7.50;99.90
54192;DHT22;40101;53.002;6.488;2023-12-22T12:33:35;7.60;99.90
54192;DHT22;40101;53.002;6.488;2023-12-22T12:36:02;7.60;99.90
54192;DHT22;40101;53.002;6.488;2023-12-22T12:38:45;7.60;99.90
54192;DHT22;40101;53.002;6.488;2023-12-22T12:41:15;7.60;99.90
54192;DHT22;40101;53.002;6.488;2023-12-22T12:43:42;7.50;99.90
54192;DHT22;40101;53.002;6.488;2023-12-22T12:46:11;7.60;99.90
54192;DHT22;40101;53.002;6.488;2023-12-22T12:48:37;7.50;99.90
54192;DHT22;40101;53.002;6.488;2023-12-22T12:51:06;7.80;99.90
54192;DHT22;40101;53.002;6.488;2023-12-22T12:53:33;7.50;99.90
54192;DHT22;40101;53.002;6.488;2023-12-22T12:55:59;7.40;99.90
54192;DHT22;40101;53.002;6.488;2023-12-22T12:58:32;7.50;99.90
54192;DHT22;40101;53.002;6.488;2023-12-22T13:01:08;7.90;99.90
54192;DHT22;40101;53.002;6.488;2023-12-22T13:03:55;7.50;99.90
54192;DHT22;40101;53.002;6.488;2023-12-22T13:06:22;7.40;99.90
54192;DHT22;40101;53.002;6.488;2023-12-22T13:08:51;7.40;99.90
54192;DHT22;40101;53.002;6.488;2023-12-22T13:11:26;7.40;99.90
54192;DHT22;40101;53.002;6.488;2023-12-22T13:13:53;7.40;99.90
54192;DHT22;40101;53.002;6.488;2023-12-22T13:16:22;7.30;99.90
54192;DHT22;40101;53.002;6.488;2023-12-22T13:18:51;7.30;99.90
54192;DHT22;40101;53.002;6.488;2023-12-22T13:21:16;7.00;99.90
54192;DHT22;40101;53.002;6.488;2023-12-22T13:23:43;7.30;99.90
54192;DHT22;40101;53.002;6.488;2023-12-22T13:26:19;7.30;99.90
54192;DHT22;40101;53.002;6.488;2023-12-22T13:28:45;7.30;99.90
54192;DHT22;40101;53.002;6.488;2023-12-22T13:31:11;7.30;99.90
54192;DHT22;40101;53.002;6.488;2023-12-22T13:33:39;7.30;99.90
54192;DHT22;40101;53.002;6.488;2023-12-22T13:36:06;7.30;99.90
54192;DHT22;40101;53.002;6.488;2023-12-22T13:38:32;7.20;99.90
54192;DHT22;40101;53.002;6.488;2023-12-22T13:41:03;7.20;99.90
54192;DHT22;40101;53.002;6.488;2023-12-22T13:43:29;7.20;99.90
54192;DHT22;40101;53.002;6.488;2023-12-22T13:45:55;7.30;99.90
54192;DHT22;40101;53.002;6.488;2023-12-22T13:48:21;7.20;99.90
54192;DHT22;40101;53.002;6.488;2023-12-22T13:50:58;7.20;99.90
54192;DHT22;40101;53.002;6.488;2023-12-22T13:53:24;7.10;99.90
54192;DHT22;40101;53.002;6.488;2023-12-22T13:55:57;7.10;99.90
54192;DHT22;40101;53.002;6.488;2023-12-22T13:58:23;7.10;99.90
54192;DHT22;40101;53.002;6.488;2023-12-22T14:00:49;7.10;99.90
54192;DHT22;40101;53.002;6.488;2023-12-22T14:03:14;7.10;99.90
54192;DHT22;40101;53.002;6.488;2023-12-22T14:05:44;7.10;99.90
54192;DHT22;40101;53.002;6.488;2023-12-22T14:08:10;7.10;99.90
54192;DHT22;40101;53.002;6.488;2023-12-22T14:10:35;7.10;99.90
54192;DHT22;40101;53.002;6.488;2023-12-22T14:13:02;7.00;99.90
54192;DHT22;40101;53.002;6.488;2023-12-22T14:15:28;7.00;99.90
54192;DHT22;40101;53.002;6.488;2023-12-22T14:17:56;7.00;99.90
54192;DHT22;40101;53.002;6.488;2023-12-22T14:20:22;7.00;99.90
54192;DHT22;40101;53.002;6.488;2023-12-22T14:22:48;7.00;99.90
54192;DHT22;40101;53.002;6.488;2023-12-22T14:25:13;7.00;99.90
54192;DHT22;40101;53.002;6.488;2023-12-22T14:27:39;7.00;99.90
54192;DHT22;40101;53.002;6.488;2023-12-22T14:30:05;7.00;99.90
54192;DHT22;40101;53.002;6.488;2023-12-22T14:32:31;7.00;99.90
54192;DHT22;40101;53.002;6.488;2023-12-22T14:34:57;6.90;99.90
54192;DHT22;40101;53.002;6.488;2023-12-22T14:37:22;6.90;99.90
54192;DHT22;40101;53.002;6.488;2023-12-22T14:39:48;6.90;99.90
54192;DHT22;40101;53.002;6.488;2023-12-22T14:42:14;7.30;99.90
54192;DHT22;40101;53.002;6.488;2023-12-22T14:44:40;6.90;99.90
54192;DHT22;40101;53.002;6.488;2023-12-22T14:47:06;6.90;99.90
54192;DHT22;40101;53.002;6.488;2023-12-22T14:49:32;6.90;99.90
54192;DHT22;40101;53.002;6.488;2023-12-22T14:51:57;6.80;99.90
54192;DHT22;40101;53.002;6.488;2023-12-22T14:54:25;6.80;99.90
54192;DHT22;40101;53.002;6.488;2023-12-22T14:56:51;6.80;99.90
54192;DHT22;40101;53.002;6.488;2023-12-22T14:59:17;6.80;99.90
54192;DHT22;40101;53.002;6.488;2023-12-22T15:01:43;6.80;99.90
54192;DHT22;40101;53.002;6.488;2023-12-22T15:04:08;6.80;99.90
54192;DHT22;40101;53.002;6.488;2023-12-22T15:06:41;6.80;99.90
54192;DHT22;40101;53.002;6.488;2023-12-22T15:09:09;6.80;99.90
54192;DHT22;40101;53.002;6.488;2023-12-22T15:11:42;6.80;99.90
54192;DHT22;40101;53.002;6.488;2023-12-22T15:14:08;6.80;99.90
54192;DHT22;40101;53.002;6.488;2023-12-22T15:16:33;6.80;99.90
54192;DHT22;40101;53.002;6.488;2023-12-22T15:19:03;6.80;99.90
54192;DHT22;40101;53.002;6.488;2023-12-22T15:21:29;6.70;99.90
54192;DHT22;40101;53.002;6.488;2023-12-22T15:23:55;6.80;99.90
54192;DHT22;40101;53.002;6.488;2023-12-22T15:26:21;6.70;99.90
54192;DHT22;40101;53.002;6.488;2023-12-22T15:28:47;6.70;99.90
54192;DHT22;40101;53.002;6.488;2023-12-22T15:31:13;6.70;99.90
54192;DHT22;40101;53.002;6.488;2023-12-22T15:33:38;7.30;99.90
54192;DHT22;40101;53.002;6.488;2023-12-22T15:36:04;6.70;99.90
54192;DHT22;40101;53.002;6.488;2023-12-22T15:38:33;6.70;99.90
54192;DHT22;40101;53.002;6.488;2023-12-22T15:41:02;6.70;99.90
54192;DHT22;40101;53.002;6.488;2023-12-22T15:43:28;6.80;99.90
54192;DHT22;40101;53.002;6.488;2023-12-22T15:45:54;6.70;99.90
54192;DHT22;40101;53.002;6.488;2023-12-22T15:48:20;6.40;99.90
54192;DHT22;40101;53.002;6.488;2023-12-22T15:50:45;7.10;99.90